Welcome to Northern Hawkes Bay. New Zealand.
PWS Header
      nz Flag



Hit Counter


W3C Valid W3C Valid logo


    Wairoa

Select any of the Stations below to visit their websites.










Historic Data from Weather Underground
Select the location of interest below. Wairoa is the default. Please have patience, this Data is slow to load in.
Northern Hawkes Bay Historical Data
Daily Summary for April 15, 2017 Units:  Metric    English   Both
« Previous Day
Next Day »
Daily Weekly Monthly Yearly Custom
  High: Low: Average:
Temperature: 24.4 °C 12.9 °C 18.2 °C
Dew Point: 14.6 °C 11.6 °C 12.9 °C
Humidity: 94% 49% 73%
Wind Speed: 27.0km/h 0.0km/h 8.3km/h
Wind Gust: 41.7km/h - -
Wind- - WNW
Pressure: 1009.4 hPa 1004.6 hPa -
Precipitation: 0.0 mm    
Historical Graphs
 
 
Tabular Data for April 15, 2017
Time Temperature Dew Point Pressure Wind Wind Speed Wind Gust Humidity Rainfall Rate (Hourly) solar
00:02 13.5 °C 12.2 °C 1005.3 hPa Calm   2.6 km/h 92% 0.0 mm 0 W/m2
00:07 13.4 °C 12.1 °C 1005.3 hPa Calm     92% 0.0 mm 0 W/m2
00:12 13.4 °C 12.1 °C 1005.3 hPa Calm     92% 0.0 mm 0 W/m2
00:17 13.3 °C 12.2 °C 1005.3 hPa Calm     93% 0.0 mm 0 W/m2
00:22 13.2 °C 12.1 °C 1005.3 hPa Calm     93% 0.0 mm 0 W/m2
00:27 13.1 °C 12.0 °C 1005.0 hPa Calm     93% 0.0 mm 0 W/m2
00:32 13.0 °C 11.9 °C 1005.3 hPa Calm     93% 0.0 mm 0 W/m2
00:37 12.9 °C 11.8 °C 1005.3 hPa Calm     93% 0.0 mm 0 W/m2
00:42 13.0 °C 12.1 °C 1005.3 hPa Calm     94% 0.0 mm 0 W/m2
00:47 12.9 °C 11.9 °C 1005.3 hPa Calm     94% 0.0 mm 0 W/m2
01:07 14.9 °C 13.4 °C 1005.3 hPa NW 7.2 km/h 11.1 km/h 91% 0.0 mm 0 W/m2
01:12 15.2 °C 13.1 °C 1005.6 hPa NW 5.0 km/h 11.1 km/h 87% 0.0 mm 0 W/m2
01:17 15.2 °C 12.9 °C 1005.6 hPa NNW 3.5 km/h 8.7 km/h 86% 0.0 mm 0 W/m2
01:22 15.1 °C 12.8 °C 1005.6 hPa NW 3.5 km/h 8.7 km/h 86% 0.0 mm 0 W/m2
01:27 15.1 °C 12.8 °C 1005.6 hPa Calm   7.2 km/h 86% 0.0 mm 0 W/m2
01:32 14.9 °C 12.8 °C 1005.3 hPa Calm   6.1 km/h 87% 0.0 mm 0 W/m2
01:37 14.7 °C 12.6 °C 1005.3 hPa NW 3.5 km/h 5.0 km/h 87% 0.0 mm 0 W/m2
01:42 14.5 °C 12.6 °C 1005.3 hPa NNW 2.6 km/h 5.0 km/h 88% 0.0 mm 0 W/m2
01:47 14.4 °C 12.4 °C 1005.3 hPa NNW 5.0 km/h 7.2 km/h 88% 0.0 mm 0 W/m2
01:52 14.4 °C 12.6 °C 1005.3 hPa NNW 3.5 km/h 7.2 km/h 89% 0.0 mm 0 W/m2
01:57 14.4 °C 12.6 °C 1005.3 hPa NNW 3.5 km/h 7.2 km/h 89% 0.0 mm 0 W/m2
02:02 14.4 °C 12.6 °C 1005.3 hPa NW 3.5 km/h 7.2 km/h 89% 0.0 mm 0 W/m2
02:07 14.5 °C 12.7 °C 1005.3 hPa NW 2.6 km/h 7.2 km/h 89% 0.0 mm 0 W/m2
02:12 14.6 °C 12.8 °C 1005.3 hPa Calm   6.1 km/h 89% 0.0 mm 0 W/m2
02:17 14.6 °C 12.8 °C 1005.0 hPa Calm   5.0 km/h 89% 0.0 mm 0 W/m2
02:22 14.5 °C 12.6 °C 1005.3 hPa Calm     88% 0.0 mm 0 W/m2
02:27 14.2 °C 12.2 °C 1005.3 hPa Calm     88% 0.0 mm 0 W/m2
02:32 14.0 °C 12.1 °C 1005.0 hPa Calm     88% 0.0 mm 0 W/m2
02:37 13.9 °C 12.1 °C 1005.0 hPa Calm     89% 0.0 mm 0 W/m2
02:42 13.8 °C 12.2 °C 1005.0 hPa Calm     90% 0.0 mm 0 W/m2
02:47 13.9 °C 12.4 °C 1005.0 hPa Calm     91% 0.0 mm 0 W/m2
02:52 13.9 °C 12.4 °C 1005.0 hPa Calm     91% 0.0 mm 0 W/m2
02:57 13.7 °C 12.3 °C 1005.0 hPa NW 2.6 km/h 5.0 km/h 91% 0.0 mm 0 W/m2
03:02 13.6 °C 12.3 °C 1004.6 hPa NW 3.5 km/h 5.0 km/h 92% 0.0 mm 0 W/m2
03:07 13.6 °C 12.3 °C 1004.6 hPa Calm   6.1 km/h 92% 0.0 mm 0 W/m2
03:12 13.5 °C 12.2 °C 1004.6 hPa Calm   6.1 km/h 92% 0.0 mm 0 W/m2
03:17 13.3 °C 12.1 °C 1004.6 hPa Calm   1.1 km/h 92% 0.0 mm 0 W/m2
03:22 13.2 °C 11.9 °C 1004.6 hPa Calm     92% 0.0 mm 0 W/m2
03:27 13.1 °C 12.0 °C 1005.0 hPa Calm     93% 0.0 mm 0 W/m2
03:32 13.1 °C 12.0 °C 1005.0 hPa Calm     93% 0.0 mm 0 W/m2
03:37 13.1 °C 12.2 °C 1004.6 hPa Calm     94% 0.0 mm 0 W/m2
03:42 13.1 °C 12.2 °C 1004.6 hPa Calm     94% 0.0 mm 0 W/m2
03:47 13.1 °C 12.2 °C 1004.6 hPa Calm     94% 0.0 mm 0 W/m2
03:52 13.1 °C 12.2 °C 1004.6 hPa Calm     94% 0.0 mm 0 W/m2
03:57 13.1 °C 12.2 °C 1005.0 hPa Calm     94% 0.0 mm 0 W/m2
04:02 13.1 °C 12.2 °C 1005.0 hPa Calm     94% 0.0 mm 0 W/m2
04:07 13.1 °C 12.2 °C 1004.6 hPa Calm     94% 0.0 mm 0 W/m2
04:12 13.1 °C 12.0 °C 1004.6 hPa Calm     93% 0.0 mm 0 W/m2
04:17 13.2 °C 12.1 °C 1005.0 hPa North 5.0 km/h 7.2 km/h 93% 0.0 mm 0 W/m2
04:22 13.2 °C 12.1 °C 1005.0 hPa NNW 3.5 km/h 7.2 km/h 93% 0.0 mm 0 W/m2
04:27 13.3 °C 12.1 °C 1004.6 hPa NNW 3.5 km/h 7.2 km/h 92% 0.0 mm 0 W/m2
04:32 13.4 °C 12.1 °C 1005.0 hPa NNW 5.0 km/h 7.2 km/h 92% 0.0 mm 0 W/m2
04:37 13.6 °C 12.3 °C 1004.6 hPa NNW 6.1 km/h 11.1 km/h 92% 0.0 mm 0 W/m2
04:42 13.8 °C 12.4 °C 1004.6 hPa North 5.0 km/h 11.1 km/h 91% 0.0 mm 0 W/m2
04:47 14.1 °C 12.3 °C 1004.6 hPa North 6.1 km/h 9.7 km/h 89% 0.0 mm 0 W/m2
04:52 14.3 °C 12.2 °C 1004.6 hPa NNW 5.0 km/h 9.7 km/h 87% 0.0 mm 0 W/m2
04:57 14.5 °C 12.2 °C 1004.6 hPa NNW 3.5 km/h 9.7 km/h 86% 0.0 mm 0 W/m2
05:02 14.7 °C 12.2 °C 1004.6 hPa NNW 3.5 km/h 9.7 km/h 85% 0.0 mm 0 W/m2
05:07 14.8 °C 12.1 °C 1004.6 hPa NNW 6.1 km/h 12.2 km/h 84% 0.0 mm 0 W/m2
05:12 15.0 °C 12.2 °C 1004.6 hPa NNW 8.7 km/h 12.2 km/h 83% 0.0 mm 0 W/m2
05:17 15.2 °C 11.9 °C 1004.6 hPa NNW 6.1 km/h 12.2 km/h 81% 0.0 mm 0 W/m2
05:22 15.1 °C 11.9 °C 1005.0 hPa NNW 6.1 km/h 12.2 km/h 81% 0.0 mm 0 W/m2
05:27 15.0 °C 11.8 °C 1004.6 hPa NNW 6.1 km/h 11.1 km/h 81% 0.0 mm 0 W/m2
05:32 15.1 °C 11.7 °C 1005.0 hPa NNW 6.1 km/h 9.7 km/h 80% 0.0 mm 0 W/m2
05:37 15.0 °C 11.8 °C 1004.6 hPa NNW 5.0 km/h 9.7 km/h 81% 0.0 mm 0 W/m2
05:42 15.0 °C 11.8 °C 1004.6 hPa NW 3.5 km/h 9.7 km/h 81% 0.0 mm 0 W/m2
05:47 14.9 °C 11.8 °C 1005.0 hPa NW 7.2 km/h 11.1 km/h 82% 0.0 mm 0 W/m2
05:52 15.0 °C 11.8 °C 1005.0 hPa NNW 5.0 km/h 11.1 km/h 81% 0.0 mm 0 W/m2
05:57 15.0 °C 11.6 °C 1004.6 hPa NNW 1.1 km/h 9.7 km/h 80% 0.0 mm 0 W/m2
06:02 15.0 °C 11.8 °C 1005.0 hPa NNW 5.0 km/h 9.7 km/h 81% 0.0 mm 0 W/m2
06:07 15.0 °C 11.8 °C 1004.6 hPa NNW 5.0 km/h 8.7 km/h 81% 0.0 mm 0 W/m2
06:12 14.9 °C 11.8 °C 1005.0 hPa NNW 6.1 km/h 9.7 km/h 82% 0.0 mm 0 W/m2
06:17 14.9 °C 12.1 °C 1005.0 hPa NNW 5.0 km/h 9.7 km/h 83% 0.0 mm 0 W/m2
06:22 14.8 °C 11.9 °C 1004.6 hPa NNW 6.1 km/h 9.7 km/h 83% 0.0 mm 0 W/m2
06:27 14.7 °C 12.1 °C 1004.6 hPa NNW 2.6 km/h 9.7 km/h 84% 0.0 mm 0 W/m2
06:32 14.7 °C 12.1 °C 1004.6 hPa North 5.0 km/h 9.7 km/h 84% 0.0 mm 1 W/m2
06:37 14.8 °C 12.1 °C 1004.6 hPa North 6.1 km/h 9.7 km/h 84% 0.0 mm 4 W/m2
06:55 15.3 °C 12.1 °C 1005.0 hPa NNW 6.1 km/h 9.7 km/h 81% 0.0 mm 15 W/m2
07:00 15.4 °C 12.2 °C 1005.0 hPa North 3.5 km/h 13.4 km/h 81% 0.0 mm 18 W/m2
07:05 15.5 °C 12.1 °C 1005.0 hPa North 5.0 km/h 13.4 km/h 80% 0.0 mm 76 W/m2
07:10 15.9 °C 12.4 °C 1005.0 hPa NNW 5.0 km/h 9.7 km/h 80% 0.0 mm 92 W/m2
07:15 16.3 °C 12.3 °C 1005.0 hPa NNW 5.0 km/h 9.7 km/h 77% 0.0 mm 106 W/m2
07:20 16.6 °C 12.3 °C 1005.0 hPa North 2.6 km/h 8.7 km/h 76% 0.0 mm 120 W/m2
07:25 16.9 °C 12.4 °C 1005.0 hPa North 3.5 km/h 8.7 km/h 75% 0.0 mm 133 W/m2
07:30 17.3 °C 12.4 °C 1005.3 hPa NNW 3.5 km/h 8.7 km/h 73% 0.0 mm 147 W/m2
07:35 17.4 °C 12.3 °C 1005.3 hPa North 5.0 km/h 11.1 km/h 72% 0.0 mm 68 W/m2
07:40 17.0 °C 11.9 °C 1005.3 hPa NNW 6.1 km/h 11.1 km/h 72% 0.0 mm 161 W/m2
07:45 17.2 °C 12.3 °C 1005.3 hPa NNW 6.1 km/h 9.7 km/h 73% 0.0 mm 184 W/m2
07:50 17.8 °C 12.7 °C 1005.3 hPa NNW 3.5 km/h 12.2 km/h 72% 0.0 mm 201 W/m2
07:55 18.3 °C 12.9 °C 1005.3 hPa North 3.5 km/h 12.2 km/h 71% 0.0 mm 218 W/m2
08:00 18.8 °C 13.0 °C 1005.6 hPa North 5.0 km/h 11.1 km/h 69% 0.0 mm 243 W/m2
08:05 19.1 °C 13.1 °C 1005.6 hPa NNW 7.2 km/h 11.1 km/h 68% 0.0 mm 264 W/m2
08:10 19.4 °C 13.1 °C 1005.6 hPa NNW 6.1 km/h 14.8 km/h 67% 0.0 mm 281 W/m2
08:15 19.7 °C 13.2 °C 1005.6 hPa NNW 7.2 km/h 14.8 km/h 66% 0.0 mm 299 W/m2
08:20 19.9 °C 13.4 °C 1005.6 hPa North 12.2 km/h 17.2 km/h 66% 0.0 mm 317 W/m2
08:25 20.0 °C 13.0 °C 1005.6 hPa North 12.2 km/h 20.9 km/h 64% 0.0 mm 265 W/m2
08:30 19.7 °C 13.2 °C 1005.6 hPa North 9.7 km/h 20.9 km/h 66% 0.0 mm 85 W/m2
08:35 19.3 °C 13.1 °C 1005.6 hPa NNW 8.7 km/h 19.5 km/h 67% 0.0 mm 269 W/m2
08:40 19.9 °C 13.6 °C 1005.6 hPa North 6.1 km/h 14.8 km/h 67% 0.0 mm 357 W/m2
08:42 20.1 °C 13.6 °C 1005.6 hPa North 7.2 km/h 14.8 km/h 66% 0.0 mm 361 W/m2
08:47 20.4 °C 13.4 °C 1005.6 hPa NNW 7.2 km/h 14.8 km/h 64% 0.0 mm 367 W/m2
08:52 20.6 °C 13.6 °C 1005.6 hPa North 8.7 km/h 17.2 km/h 64% 0.0 mm 360 W/m2
08:57 20.9 °C 13.6 °C 1005.6 hPa North 11.1 km/h 21.9 km/h 63% 0.0 mm 371 W/m2
09:02 21.1 °C 13.1 °C 1005.6 hPa NNW 9.7 km/h 23.3 km/h 60% 0.0 mm 383 W/m2
09:07 21.4 °C 13.6 °C 1005.6 hPa NNW 12.2 km/h 23.3 km/h 61% 0.0 mm 399 W/m2
09:12 21.5 °C 12.9 °C 1005.6 hPa NNW 15.8 km/h 23.3 km/h 58% 0.0 mm 407 W/m2
09:17 21.7 °C 13.3 °C 1005.6 hPa NNW 11.1 km/h 23.3 km/h 59% 0.0 mm 411 W/m2
09:22 21.6 °C 12.7 °C 1005.6 hPa NNW 9.7 km/h 31.7 km/h 57% 0.0 mm 410 W/m2
09:27 21.7 °C 12.8 °C 1005.6 hPa NNW 17.2 km/h 31.7 km/h 57% 0.0 mm 409 W/m2
09:32 21.6 °C 12.7 °C 1005.6 hPa NNW 18.3 km/h 29.4 km/h 57% 0.0 mm 203 W/m2
09:37 21.5 °C 12.6 °C 1005.6 hPa NNW 17.2 km/h 33.1 km/h 57% 0.0 mm 98 W/m2
09:42 21.6 °C 12.7 °C 1005.6 hPa NW 19.5 km/h 33.1 km/h 57% 0.0 mm 81 W/m2
09:47 21.6 °C 12.7 °C 1005.6 hPa NW 19.5 km/h 31.7 km/h 57% 0.0 mm 72 W/m2
09:52 21.7 °C 12.8 °C 1005.6 hPa NW 15.8 km/h 35.6 km/h 57% 0.0 mm 72 W/m2
09:57 21.7 °C 12.6 °C 1005.6 hPa NW 21.9 km/h 35.6 km/h 56% 0.0 mm 65 W/m2
10:02 21.7 °C 12.8 °C 1005.6 hPa NW 12.2 km/h 33.1 km/h 57% 0.0 mm 62 W/m2
10:07 21.9 °C 13.0 °C 1005.6 hPa NW 11.1 km/h 31.7 km/h 57% 0.0 mm 64 W/m2
10:12 22.4 °C 13.2 °C 1005.6 hPa NW 15.8 km/h 28.0 km/h 56% 0.0 mm 62 W/m2
10:17 22.3 °C 12.6 °C 1005.6 hPa NW 15.8 km/h 31.7 km/h 54% 0.0 mm 61 W/m2
10:22 22.4 °C 12.9 °C 1005.6 hPa NNW 17.2 km/h 31.7 km/h 55% 0.0 mm 67 W/m2
10:27 22.4 °C 12.9 °C 1005.6 hPa NNW 15.8 km/h 25.6 km/h 55% 0.0 mm 71 W/m2
10:32 22.6 °C 12.8 °C 1005.6 hPa North 17.2 km/h 27.0 km/h 54% 0.0 mm 259 W/m2
10:37 22.6 °C 12.6 °C 1006.0 hPa North 14.8 km/h 29.4 km/h 53% 0.0 mm 247 W/m2
10:42 22.6 °C 13.1 °C 1005.6 hPa North 14.8 km/h 29.4 km/h 55% 0.0 mm 444 W/m2
10:47 22.7 °C 12.7 °C 1006.0 hPa North 14.8 km/h 31.7 km/h 53% 0.0 mm 455 W/m2
10:53 22.8 °C 12.7 °C 1005.6 hPa North 14.8 km/h 31.7 km/h 53% 0.0 mm 236 W/m2
10:58 22.8 °C 12.7 °C 1005.6 hPa North 14.8 km/h 30.6 km/h 53% 0.0 mm 470 W/m2
11:03 22.5 °C 12.7 °C 1006.0 hPa North 18.3 km/h 27.0 km/h 54% 0.0 mm 459 W/m2
11:08 22.3 °C 12.3 °C 1005.6 hPa North 15.8 km/h 35.6 km/h 53% 0.0 mm 481 W/m2
11:13 22.4 °C 12.7 °C 1005.6 hPa North 15.8 km/h 35.6 km/h 54% 0.0 mm 485 W/m2
11:18 22.5 °C 12.7 °C 1006.0 hPa NNW 21.9 km/h 31.7 km/h 54% 0.0 mm 489 W/m2
11:23 22.6 °C 12.6 °C 1006.0 hPa NW 18.3 km/h 31.7 km/h 53% 0.0 mm 504 W/m2
11:28 22.7 °C 12.9 °C 1005.6 hPa NW 14.8 km/h 31.7 km/h 54% 0.0 mm 479 W/m2
11:33 22.4 °C 12.4 °C 1005.6 hPa NNW 19.5 km/h 34.3 km/h 53% 0.0 mm 312 W/m2
11:38 22.3 °C 12.6 °C 1005.6 hPa North 14.8 km/h 34.3 km/h 54% 0.0 mm 497 W/m2
11:43 22.9 °C 12.8 °C 1005.6 hPa North 13.4 km/h 28.0 km/h 53% 0.0 mm 511 W/m2
11:48 23.4 °C 13.3 °C 1005.6 hPa North 8.7 km/h 28.0 km/h 53% 0.0 mm 507 W/m2
11:53 23.4 °C 13.0 °C 1005.6 hPa North 14.8 km/h 27.0 km/h 52% 0.0 mm 502 W/m2
11:58 23.3 °C 12.9 °C 1005.6 hPa North 15.8 km/h 27.0 km/h 52% 0.0 mm 501 W/m2
12:03 23.3 °C 13.2 °C 1005.6 hPa North 12.2 km/h 25.6 km/h 53% 0.0 mm 499 W/m2
12:08 23.4 °C 13.0 °C 1005.6 hPa North 12.2 km/h 27.0 km/h 52% 0.0 mm 492 W/m2
12:13 23.3 °C 12.6 °C 1005.6 hPa North 20.9 km/h 31.7 km/h 51% 0.0 mm 493 W/m2
12:18 23.1 °C 12.7 °C 1005.6 hPa North 19.5 km/h 31.7 km/h 52% 0.0 mm 484 W/m2
12:23 23.0 °C 12.6 °C 1005.6 hPa North 17.2 km/h 33.1 km/h 52% 0.0 mm 505 W/m2
12:28 22.9 °C 12.8 °C 1005.6 hPa North 19.5 km/h 33.1 km/h 53% 0.0 mm 486 W/m2
12:33 23.0 °C 13.2 °C 1005.6 hPa NNW 18.3 km/h 33.1 km/h 54% 0.0 mm 482 W/m2
12:38 23.2 °C 13.7 °C 1005.6 hPa NNW 15.8 km/h 28.0 km/h 55% 0.0 mm 481 W/m2
12:54 23.4 °C 12.7 °C 1005.0 hPa NW 23.3 km/h 35.6 km/h 51% 0.0 mm 469 W/m2
12:59 23.4 °C 12.7 °C 1005.3 hPa NW 25.6 km/h 35.6 km/h 51% 0.0 mm 478 W/m2
13:04 23.2 °C 13.4 °C 1005.0 hPa NNW 11.1 km/h 36.7 km/h 54% 0.0 mm 265 W/m2
13:09 22.7 °C 12.7 °C 1005.0 hPa NW 23.3 km/h 36.7 km/h 53% 0.0 mm 138 W/m2
13:14 22.2 °C 12.2 °C 1005.0 hPa NW 19.5 km/h 36.7 km/h 53% 0.0 mm 251 W/m2
13:19 22.3 °C 12.3 °C 1005.3 hPa NW 19.5 km/h 37.8 km/h 53% 0.0 mm 327 W/m2
13:24 23.3 °C 12.9 °C 1005.0 hPa NW 21.9 km/h 41.7 km/h 52% 0.0 mm 444 W/m2
13:29 23.6 °C 13.2 °C 1005.0 hPa NW 17.2 km/h 41.7 km/h 52% 0.0 mm 438 W/m2
13:34 23.2 °C 12.5 °C 1005.3 hPa NNW 20.9 km/h 36.7 km/h 51% 0.0 mm 316 W/m2
13:39 23.4 °C 12.7 °C 1005.0 hPa North 21.9 km/h 36.7 km/h 51% 0.0 mm 513 W/m2
13:45 23.7 °C 13.0 °C 1005.0 hPa NNW 23.3 km/h 36.7 km/h 51% 0.0 mm 438 W/m2
13:50 24.0 °C 13.3 °C 1005.0 hPa NNW 15.8 km/h 36.7 km/h 51% 0.0 mm 324 W/m2
13:56 23.9 °C 12.9 °C 1005.0 hPa NNW 18.3 km/h 34.3 km/h 50% 0.0 mm 357 W/m2
14:01 23.6 °C 12.9 °C 1005.0 hPa North 27.0 km/h 34.3 km/h 51% 0.0 mm 452 W/m2
14:06 23.6 °C 12.9 °C 1005.3 hPa North 27.0 km/h 37.8 km/h 51% 0.0 mm 492 W/m2
14:11 23.6 °C 13.2 °C 1005.0 hPa North 23.3 km/h 37.8 km/h 52% 0.0 mm 463 W/m2
14:16 23.6 °C 13.5 °C 1005.0 hPa NNW 20.9 km/h 37.8 km/h 53% 0.0 mm 388 W/m2
14:21 23.9 °C 13.2 °C 1005.0 hPa NW 23.3 km/h 33.1 km/h 51% 0.0 mm 210 W/m2
14:26 23.4 °C 13.3 °C 1005.0 hPa NW 12.2 km/h 30.6 km/h 53% 0.0 mm 223 W/m2
14:31 23.8 °C 13.1 °C 1005.0 hPa NNW 17.2 km/h 33.1 km/h 51% 0.0 mm 196 W/m2
14:36 24.2 °C 13.1 °C 1005.3 hPa NNW 11.1 km/h 33.1 km/h 50% 0.0 mm 150 W/m2
14:41 24.4 °C 13.0 °C 1005.3 hPa NNW 13.4 km/h 29.4 km/h 49% 0.0 mm 134 W/m2
14:46 24.2 °C 13.4 °C 1005.0 hPa North 18.3 km/h 29.4 km/h 51% 0.0 mm 112 W/m2
14:51 24.0 °C 12.9 °C 1005.3 hPa NNE 18.3 km/h 29.4 km/h 50% 0.0 mm 93 W/m2
14:52 23.9 °C 13.2 °C 1005.3 hPa North 17.2 km/h 29.4 km/h 51% 0.0 mm 88 W/m2
14:57 23.8 °C 13.7 °C 1005.3 hPa North 13.4 km/h 29.4 km/h 53% 0.0 mm 100 W/m2
15:02 23.8 °C 13.7 °C 1005.3 hPa North 20.9 km/h 29.4 km/h 53% 0.0 mm 248 W/m2
15:07 23.4 °C 13.6 °C 1005.3 hPa NNE 11.1 km/h 31.7 km/h 54% 0.0 mm 279 W/m2
15:12 23.4 °C 13.9 °C 1005.6 hPa NNE 13.4 km/h 31.7 km/h 55% 0.0 mm 275 W/m2
15:17 23.2 °C 13.7 °C 1005.6 hPa North 11.1 km/h 27.0 km/h 55% 0.0 mm 274 W/m2
15:22 23.2 °C 13.9 °C 1005.6 hPa North 13.4 km/h 27.0 km/h 56% 0.0 mm 258 W/m2
15:28 23.1 °C 14.1 °C 1005.6 hPa NNW 14.8 km/h 25.6 km/h 57% 0.0 mm 250 W/m2
15:33 23.0 °C 13.8 °C 1005.6 hPa NNW 15.8 km/h 25.6 km/h 56% 0.0 mm 253 W/m2
15:38 23.0 °C 14.1 °C 1005.6 hPa NNW 17.2 km/h 29.4 km/h 57% 0.0 mm 248 W/m2
15:43 23.1 °C 14.1 °C 1005.6 hPa NNW 11.1 km/h 29.4 km/h 57% 0.0 mm 249 W/m2
15:48 23.0 °C 14.1 °C 1005.3 hPa NNW 14.8 km/h 30.6 km/h 57% 0.0 mm 133 W/m2
15:53 22.2 °C 14.1 °C 1005.3 hPa NW 12.2 km/h 30.6 km/h 60% 0.0 mm 101 W/m2
15:58 21.3 °C 13.7 °C 1005.6 hPa NW 13.4 km/h 30.6 km/h 62% 0.0 mm 98 W/m2
16:03 20.9 °C 14.1 °C 1005.6 hPa NNW 19.5 km/h 31.7 km/h 65% 0.0 mm 86 W/m2
16:08 20.6 °C 13.8 °C 1005.6 hPa North 18.3 km/h 31.7 km/h 65% 0.0 mm 91 W/m2
16:13 20.6 °C 13.8 °C 1005.6 hPa NNE 14.8 km/h 29.4 km/h 65% 0.0 mm 98 W/m2
16:18 20.6 °C 14.1 °C 1005.6 hPa North 13.4 km/h 27.0 km/h 66% 0.0 mm 91 W/m2
16:23 20.5 °C 13.7 °C 1005.6 hPa NNW 13.4 km/h 24.5 km/h 65% 0.0 mm 65 W/m2
16:28 20.4 °C 13.8 °C 1006.0 hPa NNW 17.2 km/h 25.6 km/h 66% 0.0 mm 62 W/m2
16:33 20.3 °C 14.0 °C 1005.6 hPa North 14.8 km/h 25.6 km/h 67% 0.0 mm 74 W/m2
16:38 20.4 °C 14.3 °C 1005.6 hPa North 8.7 km/h 24.5 km/h 68% 0.0 mm 116 W/m2
16:43 21.2 °C 14.1 °C 1005.6 hPa NNW 15.8 km/h 24.5 km/h 64% 0.0 mm 96 W/m2
16:48 21.5 °C 14.2 °C 1006.0 hPa NNW 7.2 km/h 24.5 km/h 63% 0.0 mm 85 W/m2
16:53 21.5 °C 14.2 °C 1006.0 hPa NW 7.2 km/h 20.9 km/h 63% 0.0 mm 82 W/m2
16:58 22.1 °C 14.2 °C 1006.0 hPa WNW 7.2 km/h 13.4 km/h 61% 0.0 mm 76 W/m2
17:03 22.0 °C 14.2 °C 1006.3 hPa NW 5.0 km/h 19.5 km/h 61% 0.0 mm 48 W/m2
17:08 21.9 °C 14.6 °C 1006.3 hPa NNW 6.1 km/h 19.5 km/h 63% 0.0 mm 31 W/m2
17:13 21.0 °C 13.9 °C 1006.3 hPa NNW 6.1 km/h 13.4 km/h 64% 0.0 mm 22 W/m2
17:18 20.3 °C 14.2 °C 1006.7 hPa North 8.7 km/h 17.2 km/h 68% 0.0 mm 21 W/m2
17:23 19.8 °C 14.4 °C 1006.3 hPa North 9.7 km/h 17.2 km/h 71% 0.0 mm 13 W/m2
17:28 19.5 °C 14.6 °C 1006.3 hPa North 8.7 km/h 17.2 km/h 73% 0.0 mm 9 W/m2
17:33 19.3 °C 14.6 °C 1006.7 hPa North 7.2 km/h 17.2 km/h 74% 0.0 mm 6 W/m2
17:38 19.1 °C 14.6 °C 1006.7 hPa North 8.7 km/h 14.8 km/h 75% 0.0 mm 4 W/m2
17:43 19.0 °C 14.5 °C 1006.7 hPa NNW 8.7 km/h 15.8 km/h 75% 0.0 mm 2 W/m2
17:48 18.7 °C 14.6 °C 1006.3 hPa North 7.2 km/h 15.8 km/h 77% 0.0 mm 0 W/m2
17:53 18.6 °C 14.5 °C 1006.7 hPa North 9.7 km/h 14.8 km/h 77% 0.0 mm 0 W/m2
17:58 18.5 °C 14.4 °C 1006.7 hPa North 8.7 km/h 15.8 km/h 77% 0.0 mm 0 W/m2
18:03 18.5 °C 14.2 °C 1006.7 hPa North 6.1 km/h 15.8 km/h 76% 0.0 mm 0 W/m2
18:08 18.5 °C 14.2 °C 1006.7 hPa NNW 6.1 km/h 14.8 km/h 76% 0.0 mm 0 W/m2
18:13 18.5 °C 14.2 °C 1007.0 hPa NNW 5.0 km/h 13.4 km/h 76% 0.0 mm 0 W/m2
18:18 18.4 °C 14.1 °C 1007.0 hPa NNW 3.5 km/h 11.1 km/h 76% 0.0 mm 0 W/m2
18:23 18.2 °C 14.1 °C 1007.0 hPa NW 3.5 km/h 7.2 km/h 77% 0.0 mm 0 W/m2
18:28 18.0 °C 14.1 °C 1007.3 hPa NNW 3.5 km/h 8.7 km/h 78% 0.0 mm 0 W/m2
18:33 17.9 °C 14.2 °C 1007.3 hPa NNW 8.7 km/h 11.1 km/h 79% 0.0 mm 0 W/m2
18:38 17.9 °C 14.2 °C 1007.0 hPa NNW 5.0 km/h 12.2 km/h 79% 0.0 mm 0 W/m2
18:43 18.0 °C 14.1 °C 1007.3 hPa North 9.7 km/h 14.8 km/h 78% 0.0 mm 0 W/m2
18:48 18.1 °C 14.0 °C 1007.3 hPa North 7.2 km/h 14.8 km/h 77% 0.0 mm 0 W/m2
18:53 18.2 °C 14.1 °C 1007.3 hPa North 9.7 km/h 14.8 km/h 77% 0.0 mm 0 W/m2
18:58 18.2 °C 13.9 °C 1007.3 hPa NNW 6.1 km/h 15.8 km/h 76% 0.0 mm 0 W/m2
19:03 18.1 °C 14.0 °C 1007.3 hPa NNW 8.7 km/h 15.8 km/h 77% 0.0 mm 0 W/m2
19:08 18.0 °C 13.9 °C 1007.3 hPa North 8.7 km/h 14.8 km/h 77% 0.0 mm 0 W/m2
19:13 17.9 °C 13.8 °C 1007.3 hPa North 5.0 km/h 14.8 km/h 77% 0.0 mm 0 W/m2
19:18 18.0 °C 13.9 °C 1007.3 hPa North 7.2 km/h 14.8 km/h 77% 0.0 mm 0 W/m2
19:23 17.9 °C 13.8 °C 1007.3 hPa NNW 3.5 km/h 14.8 km/h 77% 0.0 mm 0 W/m2
19:28 17.8 °C 13.9 °C 1007.3 hPa NNW 7.2 km/h 12.2 km/h 78% 0.0 mm 0 W/m2
19:33 17.7 °C 14.0 °C 1007.7 hPa NNW 7.2 km/h 15.8 km/h 79% 0.0 mm 0 W/m2
19:38 17.6 °C 14.1 °C 1007.3 hPa NNW 7.2 km/h 15.8 km/h 80% 0.0 mm 0 W/m2
19:43 17.5 °C 14.0 °C 1007.3 hPa NNW 7.2 km/h 15.8 km/h 80% 0.0 mm 0 W/m2
19:48 17.4 °C 14.1 °C 1007.3 hPa NNW 2.6 km/h 14.8 km/h 81% 0.0 mm 0 W/m2
19:53 17.4 °C 14.1 °C 1007.3 hPa NNW 8.7 km/h 13.4 km/h 81% 0.0 mm 0 W/m2
19:58 17.3 °C 14.2 °C 1007.7 hPa NNW 7.2 km/h 12.2 km/h 82% 0.0 mm 0 W/m2
20:03 17.3 °C 14.2 °C 1007.7 hPa NNW 8.7 km/h 14.8 km/h 82% 0.0 mm 0 W/m2
20:08 17.1 °C 14.2 °C 1007.7 hPa North 5.0 km/h 14.8 km/h 83% 0.0 mm 0 W/m2
20:13 17.1 °C 14.2 °C 1007.7 hPa NNW 3.5 km/h 12.2 km/h 83% 0.0 mm 0 W/m2
20:18 17.0 °C 14.1 °C 1007.7 hPa NNW 7.2 km/h 13.4 km/h 83% 0.0 mm 0 W/m2
20:23 16.9 °C 14.2 °C 1007.7 hPa NNW 9.7 km/h 13.4 km/h 84% 0.0 mm 0 W/m2
20:28 16.9 °C 14.2 °C 1007.7 hPa NNW 6.1 km/h 13.4 km/h 84% 0.0 mm 0 W/m2
20:33 16.9 °C 14.0 °C 1007.7 hPa North 6.1 km/h 13.4 km/h 83% 0.0 mm 0 W/m2
20:38 16.9 °C 14.0 °C 1008.0 hPa NNW 9.7 km/h 14.8 km/h 83% 0.0 mm 0 W/m2
20:43 16.9 °C 13.8 °C 1008.0 hPa NNW 7.2 km/h 15.8 km/h 82% 0.0 mm 0 W/m2
20:48 16.9 °C 13.8 °C 1008.4 hPa North 6.1 km/h 15.8 km/h 82% 0.0 mm 0 W/m2
20:53 16.9 °C 13.6 °C 1008.0 hPa North 7.2 km/h 12.2 km/h 81% 0.0 mm 0 W/m2
20:58 16.9 °C 13.4 °C 1008.4 hPa NNW 9.7 km/h 17.2 km/h 80% 0.0 mm 0 W/m2
21:03 17.2 °C 12.9 °C 1008.4 hPa NNW 9.7 km/h 17.2 km/h 76% 0.0 mm 0 W/m2
21:08 17.3 °C 12.8 °C 1008.4 hPa NNW 7.2 km/h 15.8 km/h 75% 0.0 mm 0 W/m2
21:13 17.3 °C 12.8 °C 1008.4 hPa NNW 8.7 km/h 14.8 km/h 75% 0.0 mm 0 W/m2
21:18 16.9 °C 12.7 °C 1008.4 hPa NNW 7.2 km/h 13.4 km/h 76% 0.0 mm 0 W/m2
21:23 17.1 °C 12.7 °C 1008.4 hPa NNW 5.0 km/h 15.8 km/h 75% 0.0 mm 0 W/m2
21:28 17.0 °C 12.6 °C 1008.4 hPa NNW 6.1 km/h 15.8 km/h 75% 0.0 mm 0 W/m2
21:33 16.9 °C 12.7 °C 1008.4 hPa NNW 5.0 km/h 14.8 km/h 76% 0.0 mm 0 W/m2
21:38 17.1 °C 12.8 °C 1008.4 hPa NW 6.1 km/h 13.4 km/h 76% 0.0 mm 0 W/m2
21:43 16.7 °C 12.7 °C 1008.4 hPa NNW 2.6 km/h 11.1 km/h 77% 0.0 mm 0 W/m2
21:48 16.5 °C 12.4 °C 1008.4 hPa NNW 5.0 km/h 11.1 km/h 77% 0.0 mm 0 W/m2
21:53 16.5 °C 12.7 °C 1008.7 hPa NNW 7.2 km/h 11.1 km/h 78% 0.0 mm 0 W/m2
21:58 16.8 °C 12.9 °C 1008.7 hPa NNW 6.1 km/h 9.7 km/h 78% 0.0 mm 0 W/m2
22:03 16.4 °C 12.6 °C 1008.7 hPa NNW 3.5 km/h 9.7 km/h 78% 0.0 mm 0 W/m2
22:08 16.1 °C 12.4 °C 1008.7 hPa North 3.5 km/h 9.7 km/h 79% 0.0 mm 0 W/m2
22:13 15.8 °C 12.6 °C 1008.7 hPa North 2.6 km/h 9.7 km/h 81% 0.0 mm 0 W/m2
22:18 16.1 °C 13.1 °C 1008.7 hPa Calm   9.7 km/h 82% 0.0 mm 0 W/m2
22:23 15.5 °C 12.6 °C 1008.7 hPa NE 2.6 km/h 7.2 km/h 83% 0.0 mm 0 W/m2
22:28 15.4 °C 12.6 °C 1008.7 hPa Calm   7.2 km/h 83% 0.0 mm 0 W/m2
22:33 15.2 °C 12.3 °C 1009.0 hPa NNW 6.1 km/h 8.7 km/h 83% 0.0 mm 0 W/m2
22:38 15.2 °C 12.5 °C 1009.0 hPa NW 6.1 km/h 8.7 km/h 84% 0.0 mm 0 W/m2
22:43 14.9 °C 12.4 °C 1009.0 hPa NW 3.5 km/h 8.7 km/h 85% 0.0 mm 0 W/m2
22:48 14.8 °C 12.3 °C 1009.0 hPa Calm   8.7 km/h 85% 0.0 mm 0 W/m2
22:51 14.8 °C 12.3 °C 1009.0 hPa Calm   7.2 km/h 85% 0.0 mm 0 W/m2
22:56 14.7 °C 12.2 °C 1009.0 hPa North 3.5 km/h 5.0 km/h 85% 0.0 mm 0 W/m2
23:01 14.9 °C 12.2 °C 1009.0 hPa Calm   5.0 km/h 84% 0.0 mm 0 W/m2
23:06 14.9 °C 12.2 °C 1009.0 hPa Calm   5.0 km/h 84% 0.0 mm 0 W/m2
23:11 14.8 °C 11.9 °C 1009.0 hPa Calm     83% 0.0 mm 0 W/m2
23:16 14.6 °C 11.9 °C 1009.0 hPa Calm     84% 0.0 mm 0 W/m2
23:21 14.5 °C 11.8 °C 1009.0 hPa Calm     84% 0.0 mm 0 W/m2
23:26 14.7 °C 12.1 °C 1009.0 hPa Calm     84% 0.0 mm 0 W/m2
23:32 14.2 °C 11.6 °C 1009.4 hPa Calm     84% 0.0 mm 0 W/m2
23:37 14.2 °C 11.7 °C 1009.0 hPa Calm     85% 0.0 mm 0 W/m2
23:42 14.1 °C 11.6 °C 1009.0 hPa Calm     85% 0.0 mm 0 W/m2
23:47 14.1 °C 11.6 °C 1009.4 hPa Calm     85% 0.0 mm 0 W/m2
23:52 14.2 °C 11.9 °C 1009.4 hPa Calm   6.1 km/h 86% 0.0 mm 0 W/m2
23:57 14.2 °C 11.9 °C 1009.4 hPa Calm   6.1 km/h 86% 0.0 mm 0 W/m2
Northern Hawkes Bay. New Zealand Historic Data
Compliments of Weather Underground - 2.25 mb